sensor_id;sensor_type;location;lat;lon;timestamp;temperature;humidity
74901;DHT22;63461;51.416;6.758;2022-10-16T00:02:28;14.00;99.90
74901;DHT22;63461;51.416;6.758;2022-10-16T00:05:13;14.00;99.90
74901;DHT22;63461;51.416;6.758;2022-10-16T00:07:57;14.00;99.90
74901;DHT22;63461;51.416;6.758;2022-10-16T00:10:42;14.00;99.90
74901;DHT22;63461;51.416;6.758;2022-10-16T00:13:28;14.00;99.90
74901;DHT22;63461;51.416;6.758;2022-10-16T00:16:12;13.90;99.90
74901;DHT22;63461;51.416;6.758;2022-10-16T00:18:57;13.90;99.90
74901;DHT22;63461;51.416;6.758;2022-10-16T00:21:41;13.90;99.90
74901;DHT22;63461;51.416;6.758;2022-10-16T00:24:28;13.90;99.90
74901;DHT22;63461;51.416;6.758;2022-10-16T00:27:12;13.90;99.90
74901;DHT22;63461;51.416;6.758;2022-10-16T00:29:57;13.90;99.90
74901;DHT22;63461;51.416;6.758;2022-10-16T00:32:41;13.80;99.90
74901;DHT22;63461;51.416;6.758;2022-10-16T00:35:25;13.80;99.90
74901;DHT22;63461;51.416;6.758;2022-10-16T00:38:10;13.80;99.90
74901;DHT22;63461;51.416;6.758;2022-10-16T00:40:54;13.80;99.90
74901;DHT22;63461;51.416;6.758;2022-10-16T00:43:43;13.90;99.90
74901;DHT22;63461;51.416;6.758;2022-10-16T00:46:41;13.80;99.90
74901;DHT22;63461;51.416;6.758;2022-10-16T00:49:26;13.80;99.90
74901;DHT22;63461;51.416;6.758;2022-10-16T00:52:10;13.80;99.90
74901;DHT22;63461;51.416;6.758;2022-10-16T00:54:56;13.80;99.90
74901;DHT22;63461;51.416;6.758;2022-10-16T00:57:41;13.80;99.90
74901;DHT22;63461;51.416;6.758;2022-10-16T01:00:26;13.80;99.90
74901;DHT22;63461;51.416;6.758;2022-10-16T01:03:34;13.80;99.90
74901;DHT22;63461;51.416;6.758;2022-10-16T01:09:31;13.80;99.90
74901;DHT22;63461;51.416;6.758;2022-10-16T01:12:40;13.80;99.90
74901;DHT22;63461;51.416;6.758;2022-10-16T01:15:34;13.70;99.90
74901;DHT22;63461;51.416;6.758;2022-10-16T01:18:56;13.70;99.90
74901;DHT22;63461;51.416;6.758;2022-10-16T01:21:44;13.70;99.90
74901;DHT22;63461;51.416;6.758;2022-10-16T01:24:43;13.70;99.90
74901;DHT22;63461;51.416;6.758;2022-10-16T01:27:30;13.70;99.90
74901;DHT22;63461;51.416;6.758;2022-10-16T01:30:23;13.70;99.90
74901;DHT22;63461;51.416;6.758;2022-10-16T01:33:18;13.70;99.90
74901;DHT22;63461;51.416;6.758;2022-10-16T01:36:19;13.70;99.90
74901;DHT22;63461;51.416;6.758;2022-10-16T01:39:06;13.80;99.90
74901;DHT22;63461;51.416;6.758;2022-10-16T01:41:58;13.80;99.90
74901;DHT22;63461;51.416;6.758;2022-10-16T01:44:46;13.80;99.90
74901;DHT22;63461;51.416;6.758;2022-10-16T01:47:32;13.90;99.90
74901;DHT22;63461;51.416;6.758;2022-10-16T01:50:18;13.90;99.90
74901;DHT22;63461;51.416;6.758;2022-10-16T01:53:04;13.90;99.90
74901;DHT22;63461;51.416;6.758;2022-10-16T01:55:49;13.90;99.90
74901;DHT22;63461;51.416;6.758;2022-10-16T01:58:41;13.90;99.90
74901;DHT22;63461;51.416;6.758;2022-10-16T02:01:27;13.90;99.90
74901;DHT22;63461;51.416;6.758;2022-10-16T02:04:29;13.90;99.90
74901;DHT22;63461;51.416;6.758;2022-10-16T02:07:15;13.90;99.90
74901;DHT22;63461;51.416;6.758;2022-10-16T02:10:00;13.80;99.90
74901;DHT22;63461;51.416;6.758;2022-10-16T02:12:49;13.80;99.90
74901;DHT22;63461;51.416;6.758;2022-10-16T02:15:35;13.70;99.90
74901;DHT22;63461;51.416;6.758;2022-10-16T02:18:19;13.70;99.90
74901;DHT22;63461;51.416;6.758;2022-10-16T02:26:57;13.70;99.90
74901;DHT22;63461;51.416;6.758;2022-10-16T02:29:47;13.80;99.90
74901;DHT22;63461;51.416;6.758;2022-10-16T02:32:36;13.80;99.90
74901;DHT22;63461;51.416;6.758;2022-10-16T02:35:23;13.80;99.90
74901;DHT22;63461;51.416;6.758;2022-10-16T02:38:08;13.70;99.90
74901;DHT22;63461;51.416;6.758;2022-10-16T02:40:53;13.70;99.90
74901;DHT22;63461;51.416;6.758;2022-10-16T02:43:38;13.70;99.90
74901;DHT22;63461;51.416;6.758;2022-10-16T02:46:22;13.70;99.90
74901;DHT22;63461;51.416;6.758;2022-10-16T02:49:07;13.60;99.90
74901;DHT22;63461;51.416;6.758;2022-10-16T02:51:51;13.60;99.90
74901;DHT22;63461;51.416;6.758;2022-10-16T02:54:35;13.60;99.90
74901;DHT22;63461;51.416;6.758;2022-10-16T02:57:19;13.60;99.90
74901;DHT22;63461;51.416;6.758;2022-10-16T03:00:05;13.70;99.90
74901;DHT22;63461;51.416;6.758;2022-10-16T03:02:49;13.70;99.90
74901;DHT22;63461;51.416;6.758;2022-10-16T03:05:34;13.70;99.90
74901;DHT22;63461;51.416;6.758;2022-10-16T03:08:18;13.70;99.90
74901;DHT22;63461;51.416;6.758;2022-10-16T03:11:07;13.70;99.90
74901;DHT22;63461;51.416;6.758;2022-10-16T03:13:52;13.70;99.90
74901;DHT22;63461;51.416;6.758;2022-10-16T03:16:36;13.70;99.90
74901;DHT22;63461;51.416;6.758;2022-10-16T03:19:21;13.70;99.90
74901;DHT22;63461;51.416;6.758;2022-10-16T03:22:05;13.60;99.90
74901;DHT22;63461;51.416;6.758;2022-10-16T03:24:49;13.60;99.90
74901;DHT22;63461;51.416;6.758;2022-10-16T03:27:34;13.60;99.90
74901;DHT22;63461;51.416;6.758;2022-10-16T03:30:18;13.60;99.90
74901;DHT22;63461;51.416;6.758;2022-10-16T03:33:03;13.60;99.90
74901;DHT22;63461;51.416;6.758;2022-10-16T03:35:52;13.60;99.90
74901;DHT22;63461;51.416;6.758;2022-10-16T03:38:37;13.60;99.90
74901;DHT22;63461;51.416;6.758;2022-10-16T03:41:21;13.60;99.90
74901;DHT22;63461;51.416;6.758;2022-10-16T03:44:06;13.50;99.90
74901;DHT22;63461;51.416;6.758;2022-10-16T03:46:50;13.50;99.90
74901;DHT22;63461;51.416;6.758;2022-10-16T03:49:35;13.50;99.90
74901;DHT22;63461;51.416;6.758;2022-10-16T03:52:19;13.50;99.90
74901;DHT22;63461;51.416;6.758;2022-10-16T03:55:03;13.50;99.90
74901;DHT22;63461;51.416;6.758;2022-10-16T03:57:48;13.50;99.90
74901;DHT22;63461;51.416;6.758;2022-10-16T04:00:32;13.50;99.90
74901;DHT22;63461;51.416;6.758;2022-10-16T04:03:17;13.50;99.90
74901;DHT22;63461;51.416;6.758;2022-10-16T04:06:03;13.50;99.90
74901;DHT22;63461;51.416;6.758;2022-10-16T04:08:48;13.50;99.90
74901;DHT22;63461;51.416;6.758;2022-10-16T04:11:33;13.50;99.90
74901;DHT22;63461;51.416;6.758;2022-10-16T04:14:17;13.50;99.90
74901;DHT22;63461;51.416;6.758;2022-10-16T04:17:01;13.50;99.90
74901;DHT22;63461;51.416;6.758;2022-10-16T04:19:45;13.50;99.90
74901;DHT22;63461;51.416;6.758;2022-10-16T04:22:29;13.50;99.90
74901;DHT22;63461;51.416;6.758;2022-10-16T04:25:13;13.50;99.90
74901;DHT22;63461;51.416;6.758;2022-10-16T04:27:58;13.50;99.90
74901;DHT22;63461;51.416;6.758;2022-10-16T04:30:42;13.50;99.90
74901;DHT22;63461;51.416;6.758;2022-10-16T04:33:26;13.40;99.90
74901;DHT22;63461;51.416;6.758;2022-10-16T04:36:11;13.50;99.90
74901;DHT22;63461;51.416;6.758;2022-10-16T04:38:55;13.40;99.90
74901;DHT22;63461;51.416;6.758;2022-10-16T04:41:40;13.40;99.90
74901;DHT22;63461;51.416;6.758;2022-10-16T04:44:24;13.40;99.90
74901;DHT22;63461;51.416;6.758;2022-10-16T04:47:08;13.40;99.90
74901;DHT22;63461;51.416;6.758;2022-10-16T04:49:52;13.40;99.90
74901;DHT22;63461;51.416;6.758;2022-10-16T04:52:37;13.40;99.90
74901;DHT22;63461;51.416;6.758;2022-10-16T04:55:21;13.40;99.90
74901;DHT22;63461;51.416;6.758;2022-10-16T04:58:05;13.40;99.90
74901;DHT22;63461;51.416;6.758;2022-10-16T05:00:50;13.40;99.90
74901;DHT22;63461;51.416;6.758;2022-10-16T05:03:34;13.40;99.90
74901;DHT22;63461;51.416;6.758;2022-10-16T05:06:18;13.40;99.90
74901;DHT22;63461;51.416;6.758;2022-10-16T05:09:03;13.40;99.90
74901;DHT22;63461;51.416;6.758;2022-10-16T05:11:47;13.40;99.90
74901;DHT22;63461;51.416;6.758;2022-10-16T05:14:31;13.40;99.90
74901;DHT22;63461;51.416;6.758;2022-10-16T05:17:16;13.40;99.90
74901;DHT22;63461;51.416;6.758;2022-10-16T05:20:00;13.40;99.90
74901;DHT22;63461;51.416;6.758;2022-10-16T05:22:45;13.40;99.90
74901;DHT22;63461;51.416;6.758;2022-10-16T05:25:29;13.40;99.90
74901;DHT22;63461;51.416;6.758;2022-10-16T05:28:14;13.40;99.90
74901;DHT22;63461;51.416;6.758;2022-10-16T05:30:58;13.40;99.90
74901;DHT22;63461;51.416;6.758;2022-10-16T05:33:43;13.40;99.90
74901;DHT22;63461;51.416;6.758;2022-10-16T05:36:29;13.40;99.90
74901;DHT22;63461;51.416;6.758;2022-10-16T05:39:14;13.30;99.90
74901;DHT22;63461;51.416;6.758;2022-10-16T05:41:59;13.30;99.90
74901;DHT22;63461;51.416;6.758;2022-10-16T05:44:43;13.30;99.90
74901;DHT22;63461;51.416;6.758;2022-10-16T05:47:27;13.30;99.90
74901;DHT22;63461;51.416;6.758;2022-10-16T05:50:11;13.30;99.90
74901;DHT22;63461;51.416;6.758;2022-10-16T05:52:56;13.30;99.90
74901;DHT22;63461;51.416;6.758;2022-10-16T05:55:41;13.30;99.90
74901;DHT22;63461;51.416;6.758;2022-10-16T05:58:29;13.20;99.90
74901;DHT22;63461;51.416;6.758;2022-10-16T06:01:16;13.20;99.90
74901;DHT22;63461;51.416;6.758;2022-10-16T06:04:00;13.20;99.90
74901;DHT22;63461;51.416;6.758;2022-10-16T06:06:45;13.20;99.90
74901;DHT22;63461;51.416;6.758;2022-10-16T06:09:29;13.20;99.90
74901;DHT22;63461;51.416;6.758;2022-10-16T06:12:13;13.20;99.90
74901;DHT22;63461;51.416;6.758;2022-10-16T06:14:57;13.20;99.90
74901;DHT22;63461;51.416;6.758;2022-10-16T06:17:41;13.20;99.90
74901;DHT22;63461;51.416;6.758;2022-10-16T06:20:26;13.20;99.90
74901;DHT22;63461;51.416;6.758;2022-10-16T06:23:10;13.20;99.90
74901;DHT22;63461;51.416;6.758;2022-10-16T06:26:07;13.20;99.90
74901;DHT22;63461;51.416;6.758;2022-10-16T06:28:54;13.20;99.90
74901;DHT22;63461;51.416;6.758;2022-10-16T06:31:39;13.20;99.90
74901;DHT22;63461;51.416;6.758;2022-10-16T06:34:23;13.20;99.90
74901;DHT22;63461;51.416;6.758;2022-10-16T06:37:08;13.20;99.90
74901;DHT22;63461;51.416;6.758;2022-10-16T06:39:52;13.30;99.90
74901;DHT22;63461;51.416;6.758;2022-10-16T06:42:36;13.30;99.90
74901;DHT22;63461;51.416;6.758;2022-10-16T06:45:20;13.30;99.90
74901;DHT22;63461;51.416;6.758;2022-10-16T06:48:04;13.30;99.90
74901;DHT22;63461;51.416;6.758;2022-10-16T06:51:12;13.30;99.90
74901;DHT22;63461;51.416;6.758;2022-10-16T06:53:57;13.20;99.90
74901;DHT22;63461;51.416;6.758;2022-10-16T06:56:41;13.20;99.90
74901;DHT22;63461;51.416;6.758;2022-10-16T06:59:25;13.20;99.90
74901;DHT22;63461;51.416;6.758;2022-10-16T07:02:09;13.20;99.90
74901;DHT22;63461;51.416;6.758;2022-10-16T07:04:54;13.20;99.90
74901;DHT22;63461;51.416;6.758;2022-10-16T07:07:38;13.20;99.90
74901;DHT22;63461;51.416;6.758;2022-10-16T07:10:23;13.20;99.90
74901;DHT22;63461;51.416;6.758;2022-10-16T07:13:08;13.30;99.90
74901;DHT22;63461;51.416;6.758;2022-10-16T07:15:52;13.30;99.90
74901;DHT22;63461;51.416;6.758;2022-10-16T07:18:36;13.30;99.90
74901;DHT22;63461;51.416;6.758;2022-10-16T07:21:22;13.30;99.90
74901;DHT22;63461;51.416;6.758;2022-10-16T07:24:14;13.30;99.90
74901;DHT22;63461;51.416;6.758;2022-10-16T07:26:59;13.30;99.90
74901;DHT22;63461;51.416;6.758;2022-10-16T07:29:43;13.30;99.90
74901;DHT22;63461;51.416;6.758;2022-10-16T07:32:28;13.40;99.90
74901;DHT22;63461;51.416;6.758;2022-10-16T07:35:12;13.40;99.90
74901;DHT22;63461;51.416;6.758;2022-10-16T07:37:57;13.40;99.90
74901;DHT22;63461;51.416;6.758;2022-10-16T07:40:41;13.50;99.90
74901;DHT22;63461;51.416;6.758;2022-10-16T07:43:26;13.50;99.90
74901;DHT22;63461;51.416;6.758;2022-10-16T07:46:10;13.60;99.90
74901;DHT22;63461;51.416;6.758;2022-10-16T07:48:55;13.60;99.90
74901;DHT22;63461;51.416;6.758;2022-10-16T07:51:40;13.60;99.90
74901;DHT22;63461;51.416;6.758;2022-10-16T07:54:24;13.70;99.90
74901;DHT22;63461;51.416;6.758;2022-10-16T07:57:08;13.70;99.90
74901;DHT22;63461;51.416;6.758;2022-10-16T07:59:53;13.80;99.90
74901;DHT22;63461;51.416;6.758;2022-10-16T08:02:37;13.80;99.90
74901;DHT22;63461;51.416;6.758;2022-10-16T08:05:21;13.80;99.90
74901;DHT22;63461;51.416;6.758;2022-10-16T08:08:06;13.90;99.90
74901;DHT22;63461;51.416;6.758;2022-10-16T08:10:50;13.90;99.90
74901;DHT22;63461;51.416;6.758;2022-10-16T08:13:35;14.00;99.90
74901;DHT22;63461;51.416;6.758;2022-10-16T08:16:20;14.10;99.90
74901;DHT22;63461;51.416;6.758;2022-10-16T08:19:04;14.10;99.90
74901;DHT22;63461;51.416;6.758;2022-10-16T08:21:48;14.20;99.90
74901;DHT22;63461;51.416;6.758;2022-10-16T08:24:33;14.20;99.90
74901;DHT22;63461;51.416;6.758;2022-10-16T08:27:18;14.20;99.90
74901;DHT22;63461;51.416;6.758;2022-10-16T08:30:03;14.40;99.90
74901;DHT22;63461;51.416;6.758;2022-10-16T08:32:48;14.40;99.90
74901;DHT22;63461;51.416;6.758;2022-10-16T08:35:32;14.50;99.90
74901;DHT22;63461;51.416;6.758;2022-10-16T08:38:17;14.50;99.90
74901;DHT22;63461;51.416;6.758;2022-10-16T08:41:21;14.50;99.90
74901;DHT22;63461;51.416;6.758;2022-10-16T08:44:50;14.50;99.90
74901;DHT22;63461;51.416;6.758;2022-10-16T08:50:42;14.60;99.90
74901;DHT22;63461;51.416;6.758;2022-10-16T08:53:31;14.70;99.90
74901;DHT22;63461;51.416;6.758;2022-10-16T08:56:18;14.70;99.90
74901;DHT22;63461;51.416;6.758;2022-10-16T08:59:06;14.70;99.90
74901;DHT22;63461;51.416;6.758;2022-10-16T09:01:53;14.80;99.90
74901;DHT22;63461;51.416;6.758;2022-10-16T09:04:42;14.70;99.90
74901;DHT22;63461;51.416;6.758;2022-10-16T09:08:10;14.80;99.90
74901;DHT22;63461;51.416;6.758;2022-10-16T09:11:20;14.90;99.90
74901;DHT22;63461;51.416;6.758;2022-10-16T09:14:58;15.00;99.90
74901;DHT22;63461;51.416;6.758;2022-10-16T09:20:35;15.00;99.90
74901;DHT22;63461;51.416;6.758;2022-10-16T09:23:30;15.10;99.90
74901;DHT22;63461;51.416;6.758;2022-10-16T09:26:16;15.20;99.90
74901;DHT22;63461;51.416;6.758;2022-10-16T09:29:03;15.20;99.90
74901;DHT22;63461;51.416;6.758;2022-10-16T09:31:48;15.30;99.90
74901;DHT22;63461;51.416;6.758;2022-10-16T09:34:37;15.30;99.90
74901;DHT22;63461;51.416;6.758;2022-10-16T09:37:24;15.40;99.90
74901;DHT22;63461;51.416;6.758;2022-10-16T09:40:23;15.40;99.90
74901;DHT22;63461;51.416;6.758;2022-10-16T09:43:51;15.50;99.90
74901;DHT22;63461;51.416;6.758;2022-10-16T09:46:27;15.50;99.90
74901;DHT22;63461;51.416;6.758;2022-10-16T09:49:24;15.50;99.90
74901;DHT22;63461;51.416;6.758;2022-10-16T09:52:13;15.50;99.90
74901;DHT22;63461;51.416;6.758;2022-10-16T09:55:00;15.60;99.90
74901;DHT22;63461;51.416;6.758;2022-10-16T09:57:51;15.60;99.90
74901;DHT22;63461;51.416;6.758;2022-10-16T10:00:35;15.70;99.90
74901;DHT22;63461;51.416;6.758;2022-10-16T10:03:40;15.70;99.90
74901;DHT22;63461;51.416;6.758;2022-10-16T10:06:36;15.90;99.90
74901;DHT22;63461;51.416;6.758;2022-10-16T10:09:40;15.90;99.90
74901;DHT22;63461;51.416;6.758;2022-10-16T10:12:31;15.80;99.90
74901;DHT22;63461;51.416;6.758;2022-10-16T10:15:22;15.90;99.90
74901;DHT22;63461;51.416;6.758;2022-10-16T10:18:19;16.00;99.90
74901;DHT22;63461;51.416;6.758;2022-10-16T10:21:04;15.90;99.90
74901;DHT22;63461;51.416;6.758;2022-10-16T10:23:56;16.10;99.90
74901;DHT22;63461;51.416;6.758;2022-10-16T10:27:03;16.00;99.90
74901;DHT22;63461;51.416;6.758;2022-10-16T10:30:01;16.00;99.90
74901;DHT22;63461;51.416;6.758;2022-10-16T10:33:25;16.00;99.90
74901;DHT22;63461;51.416;6.758;2022-10-16T10:45:27;15.90;99.90
74901;DHT22;63461;51.416;6.758;2022-10-16T10:51:34;16.10;99.90
74901;DHT22;63461;51.416;6.758;2022-10-16T10:54:28;16.10;99.90
74901;DHT22;63461;51.416;6.758;2022-10-16T11:04:15;16.30;99.90
74901;DHT22;63461;51.416;6.758;2022-10-16T11:10:17;16.30;99.90
74901;DHT22;63461;51.416;6.758;2022-10-16T11:13:24;16.30;99.90
74901;DHT22;63461;51.416;6.758;2022-10-16T11:16:22;16.40;99.90
74901;DHT22;63461;51.416;6.758;2022-10-16T11:22:33;16.50;99.90
74901;DHT22;63461;51.416;6.758;2022-10-16T11:25:27;16.50;99.90
74901;DHT22;63461;51.416;6.758;2022-10-16T11:28:23;16.60;99.90
74901;DHT22;63461;51.416;6.758;2022-10-16T11:37:18;16.70;99.90
74901;DHT22;63461;51.416;6.758;2022-10-16T11:40:27;16.70;99.90
74901;DHT22;63461;51.416;6.758;2022-10-16T11:43:14;16.80;99.90
74901;DHT22;63461;51.416;6.758;2022-10-16T11:46:07;16.90;99.90
74901;DHT22;63461;51.416;6.758;2022-10-16T11:49:15;16.90;99.90
74901;DHT22;63461;51.416;6.758;2022-10-16T11:55:18;17.10;99.90
74901;DHT22;63461;51.416;6.758;2022-10-16T12:04:11;17.10;99.90
74901;DHT22;63461;51.416;6.758;2022-10-16T12:07:06;17.00;99.90
74901;DHT22;63461;51.416;6.758;2022-10-16T12:09:52;16.90;99.90
74901;DHT22;63461;51.416;6.758;2022-10-16T12:12:38;16.90;99.90
74901;DHT22;63461;51.416;6.758;2022-10-16T12:15:28;16.90;99.90
74901;DHT22;63461;51.416;6.758;2022-10-16T12:18:22;16.90;99.90
74901;DHT22;63461;51.416;6.758;2022-10-16T12:21:07;16.80;99.90
74901;DHT22;63461;51.416;6.758;2022-10-16T12:23:54;16.80;99.90
74901;DHT22;63461;51.416;6.758;2022-10-16T12:26:39;16.80;99.90
74901;DHT22;63461;51.416;6.758;2022-10-16T12:35:25;16.70;99.90
74901;DHT22;63461;51.416;6.758;2022-10-16T12:41:06;16.80;99.90
74901;DHT22;63461;51.416;6.758;2022-10-16T12:43:57;16.80;99.90
74901;DHT22;63461;51.416;6.758;2022-10-16T12:46:41;16.90;99.90
74901;DHT22;63461;51.416;6.758;2022-10-16T12:49:32;16.90;99.90
74901;DHT22;63461;51.416;6.758;2022-10-16T12:52:36;17.00;99.90
74901;DHT22;63461;51.416;6.758;2022-10-16T12:55:21;16.90;99.90
74901;DHT22;63461;51.416;6.758;2022-10-16T13:01:41;16.90;99.90
74901;DHT22;63461;51.416;6.758;2022-10-16T13:08:12;17.00;99.90
74901;DHT22;63461;51.416;6.758;2022-10-16T13:23:22;16.90;99.90
74901;DHT22;63461;51.416;6.758;2022-10-16T13:29:12;16.90;99.90
74901;DHT22;63461;51.416;6.758;2022-10-16T13:31:59;16.90;99.90
74901;DHT22;63461;51.416;6.758;2022-10-16T13:34:46;16.90;99.90
74901;DHT22;63461;51.416;6.758;2022-10-16T13:37:31;17.00;99.90
74901;DHT22;63461;51.416;6.758;2022-10-16T13:40:23;17.10;99.90
74901;DHT22;63461;51.416;6.758;2022-10-16T13:43:08;17.20;99.90
74901;DHT22;63461;51.416;6.758;2022-10-16T13:45:58;17.20;99.90
74901;DHT22;63461;51.416;6.758;2022-10-16T13:48:43;17.30;99.90
74901;DHT22;63461;51.416;6.758;2022-10-16T13:51:29;17.20;99.90
74901;DHT22;63461;51.416;6.758;2022-10-16T13:54:14;17.30;99.90
74901;DHT22;63461;51.416;6.758;2022-10-16T13:57:05;17.40;99.90
74901;DHT22;63461;51.416;6.758;2022-10-16T13:59:50;17.50;99.90
74901;DHT22;63461;51.416;6.758;2022-10-16T14:02:36;17.40;99.90
74901;DHT22;63461;51.416;6.758;2022-10-16T14:05:22;17.40;99.90
74901;DHT22;63461;51.416;6.758;2022-10-16T14:08:11;17.40;99.90
74901;DHT22;63461;51.416;6.758;2022-10-16T14:10:59;17.30;99.90
74901;DHT22;63461;51.416;6.758;2022-10-16T14:13:45;17.30;99.90
74901;DHT22;63461;51.416;6.758;2022-10-16T14:16:31;17.40;99.90
74901;DHT22;63461;51.416;6.758;2022-10-16T14:19:25;17.50;99.90
74901;DHT22;63461;51.416;6.758;2022-10-16T14:22:36;17.50;99.90
74901;DHT22;63461;51.416;6.758;2022-10-16T14:28:22;17.50;99.90
74901;DHT22;63461;51.416;6.758;2022-10-16T14:31:32;17.50;99.90
74901;DHT22;63461;51.416;6.758;2022-10-16T14:37:23;17.50;99.90
74901;DHT22;63461;51.416;6.758;2022-10-16T14:40:14;17.50;99.90
74901;DHT22;63461;51.416;6.758;2022-10-16T14:43:01;17.50;99.90
74901;DHT22;63461;51.416;6.758;2022-10-16T14:45:51;17.50;99.90
74901;DHT22;63461;51.416;6.758;2022-10-16T14:48:41;17.50;99.90
74901;DHT22;63461;51.416;6.758;2022-10-16T14:51:26;17.40;99.90
74901;DHT22;63461;51.416;6.758;2022-10-16T14:54:15;17.40;99.90
74901;DHT22;63461;51.416;6.758;2022-10-16T14:57:00;17.40;99.90
74901;DHT22;63461;51.416;6.758;2022-10-16T14:59:45;17.40;99.90
74901;DHT22;63461;51.416;6.758;2022-10-16T15:02:32;17.40;99.90
74901;DHT22;63461;51.416;6.758;2022-10-16T15:05:20;17.40;99.90
74901;DHT22;63461;51.416;6.758;2022-10-16T15:08:06;17.40;99.90
74901;DHT22;63461;51.416;6.758;2022-10-16T15:10:51;17.30;99.90
74901;DHT22;63461;51.416;6.758;2022-10-16T15:13:35;17.20;99.90
74901;DHT22;63461;51.416;6.758;2022-10-16T15:16:19;17.20;99.90
74901;DHT22;63461;51.416;6.758;2022-10-16T15:19:03;17.20;99.90
74901;DHT22;63461;51.416;6.758;2022-10-16T15:21:48;17.10;99.90
74901;DHT22;63461;51.416;6.758;2022-10-16T15:24:33;17.10;99.90
74901;DHT22;63461;51.416;6.758;2022-10-16T15:27:17;17.10;99.90
74901;DHT22;63461;51.416;6.758;2022-10-16T15:30:01;17.00;99.90
74901;DHT22;63461;51.416;6.758;2022-10-16T15:32:46;17.00;99.90
74901;DHT22;63461;51.416;6.758;2022-10-16T15:35:30;17.00;99.90
74901;DHT22;63461;51.416;6.758;2022-10-16T15:38:15;16.90;99.90
74901;DHT22;63461;51.416;6.758;2022-10-16T15:41:01;16.90;99.90
74901;DHT22;63461;51.416;6.758;2022-10-16T15:43:48;16.90;99.90
74901;DHT22;63461;51.416;6.758;2022-10-16T15:46:33;16.90;99.90
74901;DHT22;63461;51.416;6.758;2022-10-16T15:49:18;16.80;99.90
74901;DHT22;63461;51.416;6.758;2022-10-16T15:52:03;16.80;99.90
74901;DHT22;63461;51.416;6.758;2022-10-16T15:54:48;16.80;99.90
74901;DHT22;63461;51.416;6.758;2022-10-16T15:57:32;16.80;99.90
74901;DHT22;63461;51.416;6.758;2022-10-16T16:00:19;16.70;99.90
74901;DHT22;63461;51.416;6.758;2022-10-16T16:03:08;16.70;99.90
74901;DHT22;63461;51.416;6.758;2022-10-16T16:05:52;16.70;99.90
74901;DHT22;63461;51.416;6.758;2022-10-16T16:08:37;16.60;99.90
74901;DHT22;63461;51.416;6.758;2022-10-16T16:11:21;16.60;99.90
74901;DHT22;63461;51.416;6.758;2022-10-16T16:14:10;16.50;99.90
74901;DHT22;63461;51.416;6.758;2022-10-16T16:16:56;16.50;99.90
74901;DHT22;63461;51.416;6.758;2022-10-16T16:19:40;16.50;99.90
74901;DHT22;63461;51.416;6.758;2022-10-16T16:22:25;16.50;99.90
74901;DHT22;63461;51.416;6.758;2022-10-16T16:25:10;16.40;99.90
74901;DHT22;63461;51.416;6.758;2022-10-16T16:27:54;16.40;99.90
74901;DHT22;63461;51.416;6.758;2022-10-16T16:30:38;16.40;99.90
74901;DHT22;63461;51.416;6.758;2022-10-16T16:33:23;16.30;99.90
74901;DHT22;63461;51.416;6.758;2022-10-16T16:36:07;16.20;99.90
74901;DHT22;63461;51.416;6.758;2022-10-16T16:38:52;16.20;99.90
74901;DHT22;63461;51.416;6.758;2022-10-16T16:41:36;16.20;99.90
74901;DHT22;63461;51.416;6.758;2022-10-16T16:44:21;16.20;99.90
74901;DHT22;63461;51.416;6.758;2022-10-16T16:47:05;16.10;99.90
74901;DHT22;63461;51.416;6.758;2022-10-16T16:49:50;16.00;99.90
74901;DHT22;63461;51.416;6.758;2022-10-16T16:52:35;16.00;99.90
74901;DHT22;63461;51.416;6.758;2022-10-16T16:55:19;16.00;99.90
74901;DHT22;63461;51.416;6.758;2022-10-16T16:58:04;16.00;99.90
74901;DHT22;63461;51.416;6.758;2022-10-16T17:00:49;16.00;99.90
74901;DHT22;63461;51.416;6.758;2022-10-16T17:03:34;16.00;99.90
74901;DHT22;63461;51.416;6.758;2022-10-16T17:06:20;15.90;99.90
74901;DHT22;63461;51.416;6.758;2022-10-16T17:09:06;15.90;99.90
74901;DHT22;63461;51.416;6.758;2022-10-16T17:11:50;15.90;99.90
74901;DHT22;63461;51.416;6.758;2022-10-16T17:14:35;15.90;99.90
74901;DHT22;63461;51.416;6.758;2022-10-16T17:17:19;15.90;99.90
74901;DHT22;63461;51.416;6.758;2022-10-16T17:20:04;15.90;99.90
74901;DHT22;63461;51.416;6.758;2022-10-16T17:22:48;15.90;99.90
74901;DHT22;63461;51.416;6.758;2022-10-16T17:25:35;16.00;99.90
74901;DHT22;63461;51.416;6.758;2022-10-16T17:28:20;16.00;99.90
74901;DHT22;63461;51.416;6.758;2022-10-16T17:31:13;16.00;99.90
74901;DHT22;63461;51.416;6.758;2022-10-16T17:33:58;16.00;99.90
74901;DHT22;63461;51.416;6.758;2022-10-16T17:36:43;16.00;99.90
74901;DHT22;63461;51.416;6.758;2022-10-16T17:39:29;16.00;99.90
74901;DHT22;63461;51.416;6.758;2022-10-16T17:42:14;16.00;99.90
74901;DHT22;63461;51.416;6.758;2022-10-16T17:44:58;16.00;99.90
74901;DHT22;63461;51.416;6.758;2022-10-16T17:47:42;16.00;99.90
74901;DHT22;63461;51.416;6.758;2022-10-16T17:50:26;16.00;99.90
74901;DHT22;63461;51.416;6.758;2022-10-16T17:53:11;16.00;99.90
74901;DHT22;63461;51.416;6.758;2022-10-16T17:55:55;15.90;99.90
74901;DHT22;63461;51.416;6.758;2022-10-16T17:58:42;15.90;99.90
74901;DHT22;63461;51.416;6.758;2022-10-16T18:01:29;15.90;99.90
74901;DHT22;63461;51.416;6.758;2022-10-16T18:04:15;15.90;99.90
74901;DHT22;63461;51.416;6.758;2022-10-16T18:07:00;15.90;99.90
74901;DHT22;63461;51.416;6.758;2022-10-16T18:09:45;15.90;99.90
74901;DHT22;63461;51.416;6.758;2022-10-16T18:12:28;15.90;99.90
74901;DHT22;63461;51.416;6.758;2022-10-16T18:15:13;15.90;99.90
74901;DHT22;63461;51.416;6.758;2022-10-16T18:17:57;15.90;99.90
74901;DHT22;63461;51.416;6.758;2022-10-16T18:20:42;15.90;99.90
74901;DHT22;63461;51.416;6.758;2022-10-16T18:23:26;15.90;99.90
74901;DHT22;63461;51.416;6.758;2022-10-16T18:26:12;15.80;99.90
74901;DHT22;63461;51.416;6.758;2022-10-16T18:28:57;15.80;99.90
74901;DHT22;63461;51.416;6.758;2022-10-16T18:31:41;15.80;99.90
74901;DHT22;63461;51.416;6.758;2022-10-16T18:34:26;15.80;99.90
74901;DHT22;63461;51.416;6.758;2022-10-16T18:37:10;15.80;99.90
74901;DHT22;63461;51.416;6.758;2022-10-16T18:39:55;15.80;99.90
74901;DHT22;63461;51.416;6.758;2022-10-16T18:42:40;15.80;99.90
74901;DHT22;63461;51.416;6.758;2022-10-16T18:45:24;15.80;99.90
74901;DHT22;63461;51.416;6.758;2022-10-16T18:48:08;15.80;99.90
74901;DHT22;63461;51.416;6.758;2022-10-16T18:50:53;15.90;99.90
74901;DHT22;63461;51.416;6.758;2022-10-16T18:53:38;15.80;99.90
74901;DHT22;63461;51.416;6.758;2022-10-16T18:56:24;15.90;99.90
74901;DHT22;63461;51.416;6.758;2022-10-16T18:59:09;15.80;99.90
74901;DHT22;63461;51.416;6.758;2022-10-16T19:01:53;15.80;99.90
74901;DHT22;63461;51.416;6.758;2022-10-16T19:04:38;15.80;99.90
74901;DHT22;63461;51.416;6.758;2022-10-16T19:07:22;15.80;99.90
74901;DHT22;63461;51.416;6.758;2022-10-16T19:10:06;15.80;99.90
74901;DHT22;63461;51.416;6.758;2022-10-16T19:12:51;15.80;99.90